Time;durP1;ratioP1;P1;durP2;ratioP2;P2;SDS_P1;SDS_P2;PMS_P1;PMS_P2;Temp;Humidity;BMP_temperature;BMP_pressure;BME280_temperature;BME280_humidity;BME280_pressure;Samples;Min_cycle;Max_cycle;Signal;HPM_P1;HPM_P2
2022/05/18 00:01:26;;;;;;;11.20;6.30;;;;;;;;;;5086950;28;20055;-71
2022/05/18 00:03:52;;;;;;;7.70;5.93;;;;;;;;;;5101006;28;20033;-73
2022/05/18 00:06:17;;;;;;;7.63;6.03;;;;;;;;;;5077375;28;20047;-72
2022/05/18 00:08:42;;;;;;;11.48;6.05;;;;;;;;;;5078901;28;20024;-69
2022/05/18 00:11:14;;;;;;;13.37;7.70;;;;;;;;;;5083290;28;20486;-69
2022/05/18 00:13:43;;;;;;;12.80;6.63;;;;;;;;;;5090907;28;20315;-69
2022/05/18 00:16:09;;;;;;;14.68;7.50;;;;;;;;;;5083842;28;20047;-69
2022/05/18 00:18:34;;;;;;;10.73;7.05;;;;;;;;;;5084339;28;20036;-73
2022/05/18 00:21:00;;;;;;;11.27;7.33;;;;;;;;;;5083301;28;20032;-73
2022/05/18 00:23:26;;;;;;;8.85;6.80;;;;;;;;;;5077809;28;20284;-71
2022/05/18 00:25:51;;;;;;;10.95;7.03;;;;;;;;;;5091575;28;20040;-73
2022/05/18 00:28:17;;;;;;;11.03;7.63;;;;;;;;;;5091813;28;20044;-73
2022/05/18 00:30:43;;;;;;;13.05;7.70;;;;;;;;;;5093963;28;20289;-73
2022/05/18 00:33:09;;;;;;;13.27;8.25;;;;;;;;;;5096081;28;20478;-72
2022/05/18 00:35:35;;;;;;;10.13;7.78;;;;;;;;;;5078245;28;20507;-72
2022/05/18 00:38:01;;;;;;;11.77;8.25;;;;;;;;;;5087285;28;20043;-72
2022/05/18 00:40:27;;;;;;;10.73;8.05;;;;;;;;;;5085039;28;20493;-72
2022/05/18 00:42:52;;;;;;;12.35;7.78;;;;;;;;;;5082968;28;20063;-72
2022/05/18 00:45:18;;;;;;;13.60;8.77;;;;;;;;;;5092332;28;20049;-71
2022/05/18 00:47:43;;;;;;;13.15;8.77;;;;;;;;;;5102013;28;20580;-72
2022/05/18 00:50:16;;;;;;;12.73;9.38;;;;;;;;;;5091255;28;20050;-73
2022/05/18 00:52:45;;;;;;;15.88;9.23;;;;;;;;;;5080576;28;20031;-72
2022/05/18 00:55:12;;;;;;;12.70;9.10;;;;;;;;;;5098198;28;20036;-72
2022/05/18 00:57:52;;;;;;;12.45;9.15;;;;;;;;;;5071764;28;20486;-72
2022/05/18 01:00:19;;;;;;;12.80;9.20;;;;;;;;;;5081974;28;20040;-71
2022/05/18 01:02:46;;;;;;;15.93;9.13;;;;;;;;;;5077260;28;20135;-73
2022/05/18 01:05:14;;;;;;;13.45;8.93;;;;;;;;;;5082412;28;20047;-72
2022/05/18 01:07:45;;;;;;;16.95;9.18;;;;;;;;;;5089243;28;20040;-73
2022/05/18 01:10:10;;;;;;;15.20;9.55;;;;;;;;;;5090564;28;20032;-71
2022/05/18 01:12:36;;;;;;;18.77;9.45;;;;;;;;;;5074531;28;20043;-73
2022/05/18 01:15:06;;;;;;;14.65;8.95;;;;;;;;;;5077973;28;20071;-73
2022/05/18 01:17:34;;;;;;;14.88;9.90;;;;;;;;;;5080901;28;20036;-72
2022/05/18 01:20:00;;;;;;;16.83;10.02;;;;;;;;;;5081859;28;20047;-73
2022/05/18 01:22:25;;;;;;;11.35;9.18;;;;;;;;;;5080492;28;20039;-72
2022/05/18 01:25:06;;;;;;;16.53;9.60;;;;;;;;;;5088208;28;20039;-72
2022/05/18 01:27:31;;;;;;;11.90;8.70;;;;;;;;;;5085683;28;20044;-73
2022/05/18 01:29:57;;;;;;;15.33;9.63;;;;;;;;;;5089303;28;20028;-72
2022/05/18 01:32:23;;;;;;;14.88;9.60;;;;;;;;;;5077395;28;20284;-72
2022/05/18 01:34:48;;;;;;;14.48;10.07;;;;;;;;;;5081788;28;20036;-72
2022/05/18 01:37:14;;;;;;;15.25;9.90;;;;;;;;;;5078883;28;20060;-73
2022/05/18 01:39:52;;;;;;;13.20;9.25;;;;;;;;;;5080702;28;20128;-73
2022/05/18 01:42:24;;;;;;;16.60;9.75;;;;;;;;;;5071785;28;20435;-73
2022/05/18 01:44:49;;;;;;;16.33;9.68;;;;;;;;;;5076996;28;20104;-73
2022/05/18 01:47:14;;;;;;;13.45;9.63;;;;;;;;;;5073062;28;20119;-72
2022/05/18 01:49:40;;;;;;;19.33;9.93;;;;;;;;;;5071293;28;20029;-69
2022/05/18 01:52:06;;;;;;;11.40;9.10;;;;;;;;;;5086258;28;20165;-68
2022/05/18 01:54:39;;;;;;;17.05;9.18;;;;;;;;;;5081562;28;20498;-70
2022/05/18 01:57:04;;;;;;;14.93;10.20;;;;;;;;;;5105502;28;20039;-69
2022/05/18 01:59:30;;;;;;;16.13;9.93;;;;;;;;;;5093073;28;20043;-69
2022/05/18 02:01:55;;;;;;;13.77;9.80;;;;;;;;;;5084290;28;20394;-69
2022/05/18 02:04:20;;;;;;;18.10;9.67;;;;;;;;;;5092441;28;20281;-69
2022/05/18 02:06:45;;;;;;;15.50;10.50;;;;;;;;;;5098086;28;20040;-72
2022/05/18 02:09:16;;;;;;;16.92;9.80;;;;;;;;;;5089520;28;20276;-72
2022/05/18 02:11:42;;;;;;;15.77;9.90;;;;;;;;;;5101062;28;20051;-72
2022/05/18 02:14:09;;;;;;;14.85;10.45;;;;;;;;;;5089635;28;20039;-72
2022/05/18 02:16:34;;;;;;;20.00;10.88;;;;;;;;;;5082860;28;20126;-72
2022/05/18 02:18:59;;;;;;;17.52;10.73;;;;;;;;;;5095070;28;20158;-73
2022/05/18 02:21:25;;;;;;;20.02;11.13;;;;;;;;;;5078793;28;20036;-72
2022/05/18 02:23:50;;;;;;;18.42;11.27;;;;;;;;;;5087552;28;20037;-71
2022/05/18 02:26:16;;;;;;;18.23;10.90;;;;;;;;;;5085236;28;20052;-72
2022/05/18 02:28:43;;;;;;;15.55;11.18;;;;;;;;;;5080604;28;20044;-72
2022/05/18 02:31:08;;;;;;;18.27;11.50;;;;;;;;;;5095024;28;20023;-73
2022/05/18 02:33:33;;;;;;;16.90;11.18;;;;;;;;;;5076571;28;20086;-72
2022/05/18 02:35:59;;;;;;;21.93;12.37;;;;;;;;;;5091680;28;20089;-73
2022/05/18 02:38:24;;;;;;;18.95;10.93;;;;;;;;;;5082799;28;20031;-73
2022/05/18 02:40:50;;;;;;;19.60;11.27;;;;;;;;;;5076415;28;20047;-73
2022/05/18 02:43:15;;;;;;;15.90;11.00;;;;;;;;;;5086861;28;20105;-73
2022/05/18 02:45:40;;;;;;;20.07;11.43;;;;;;;;;;5089221;28;20279;-73
2022/05/18 02:48:05;;;;;;;15.67;10.33;;;;;;;;;;5083010;28;20280;-72
2022/05/18 02:50:32;;;;;;;14.13;10.18;;;;;;;;;;5088085;28;20283;-71
2022/05/18 02:52:58;;;;;;;15.05;10.07;;;;;;;;;;5080438;28;20055;-71
2022/05/18 02:58:07;;;;;;;16.15;9.60;;;;;;;;;;5090907;28;20036;-71
2022/05/18 03:00:33;;;;;;;20.70;9.43;;;;;;;;;;5091565;28;20496;-73
2022/05/18 03:02:58;;;;;;;14.47;9.77;;;;;;;;;;5083744;28;20036;-71
2022/05/18 03:05:23;;;;;;;15.17;9.53;;;;;;;;;;5086259;28;20036;-71
2022/05/18 03:07:49;;;;;;;14.43;9.35;;;;;;;;;;5080611;28;20294;-71
2022/05/18 03:10:15;;;;;;;15.30;9.35;;;;;;;;;;5084034;28;20048;-72
2022/05/18 03:12:41;;;;;;;16.83;9.25;;;;;;;;;;5094122;28;20047;-72
2022/05/18 03:15:07;;;;;;;15.77;9.57;;;;;;;;;;5107349;28;20035;-72
2022/05/18 03:17:32;;;;;;;17.70;9.00;;;;;;;;;;5098949;28;20053;-72
2022/05/18 03:19:57;;;;;;;13.32;8.55;;;;;;;;;;5096822;28;20497;-71
2022/05/18 03:25:06;;;;;;;13.45;8.10;;;;;;;;;;5093245;28;20273;-70
2022/05/18 03:27:32;;;;;;;17.80;8.55;;;;;;;;;;5098035;28;20040;-73
2022/05/18 03:29:57;;;;;;;10.45;8.27;;;;;;;;;;5086815;28;20048;-72
2022/05/18 03:32:22;;;;;;;16.33;8.18;;;;;;;;;;5099948;28;20177;-71
2022/05/18 03:34:49;;;;;;;14.40;8.47;;;;;;;;;;5093219;28;20493;-73
2022/05/18 03:37:15;;;;;;;15.00;8.20;;;;;;;;;;5092458;28;20117;-73
2022/05/18 03:39:40;;;;;;;11.10;7.90;;;;;;;;;;5088863;28;20046;-72
2022/05/18 03:42:07;;;;;;;13.10;8.00;;;;;;;;;;5075697;28;20041;-72
2022/05/18 03:44:32;;;;;;;9.82;6.50;;;;;;;;;;5086222;28;20265;-72
2022/05/18 03:46:57;;;;;;;11.77;7.03;;;;;;;;;;5084552;28;20036;-64
2022/05/18 03:49:23;;;;;;;12.18;6.82;;;;;;;;;;5082835;28;20028;-66
2022/05/18 03:51:49;;;;;;;12.82;7.63;;;;;;;;;;5102285;28;20123;-73
2022/05/18 03:54:14;;;;;;;15.27;7.07;;;;;;;;;;5084041;28;20028;-73
2022/05/18 03:56:40;;;;;;;16.13;6.68;;;;;;;;;;5092094;28;20070;-72
2022/05/18 03:59:05;;;;;;;13.73;7.40;;;;;;;;;;5081995;28;20486;-68
2022/05/18 04:01:30;;;;;;;15.18;6.80;;;;;;;;;;5079031;28;20036;-68
2022/05/18 04:03:56;;;;;;;13.52;7.00;;;;;;;;;;5075216;28;20097;-70
2022/05/18 04:06:21;;;;;;;16.80;7.20;;;;;;;;;;5088852;28;20027;-72
2022/05/18 04:08:46;;;;;;;12.65;7.28;;;;;;;;;;5086561;28;20790;-73
2022/05/18 04:11:12;;;;;;;8.67;6.13;;;;;;;;;;5094426;28;20382;-72
2022/05/18 04:13:38;;;;;;;9.70;5.97;;;;;;;;;;5099996;28;20296;-73
2022/05/18 04:16:04;;;;;;;10.68;6.05;;;;;;;;;;5088752;28;20481;-73
2022/05/18 04:18:32;;;;;;;8.95;5.88;;;;;;;;;;5080159;28;20041;-71
2022/05/18 04:20:58;;;;;;;14.75;6.72;;;;;;;;;;5076254;28;20561;-71
2022/05/18 04:23:24;;;;;;;11.70;5.60;;;;;;;;;;5079181;28;20050;-72
2022/05/18 04:25:50;;;;;;;8.40;4.70;;;;;;;;;;5081158;28;20056;-74
2022/05/18 04:28:15;;;;;;;8.32;4.70;;;;;;;;;;5087626;28;20059;-73
2022/05/18 04:30:45;;;;;;;11.52;5.07;;;;;;;;;;5084281;28;20031;-72
2022/05/18 04:33:12;;;;;;;8.20;4.47;;;;;;;;;;5105807;28;20039;-73
2022/05/18 04:35:37;;;;;;;13.93;4.28;;;;;;;;;;5086864;28;20040;-72
2022/05/18 04:38:02;;;;;;;11.85;3.95;;;;;;;;;;5085474;28;20398;-72
2022/05/18 04:40:28;;;;;;;6.67;3.93;;;;;;;;;;5078957;28;20543;-70
2022/05/18 04:42:53;;;;;;;9.05;3.88;;;;;;;;;;5082555;28;20276;-70
2022/05/18 04:45:19;;;;;;;12.70;3.40;;;;;;;;;;5086228;28;20060;-69
2022/05/18 04:47:44;;;;;;;4.72;3.10;;;;;;;;;;5095105;28;20040;-70
2022/05/18 04:50:10;;;;;;;8.85;3.05;;;;;;;;;;5100857;28;20039;-71
2022/05/18 04:52:36;;;;;;;9.70;3.20;;;;;;;;;;5091043;28;20055;-69
2022/05/18 04:55:01;;;;;;;38.75;4.20;;;;;;;;;;5082600;28;20040;-69
2022/05/18 04:57:27;;;;;;;15.85;2.97;;;;;;;;;;5078455;28;20036;-68
2022/05/18 04:59:52;;;;;;;7.78;2.30;;;;;;;;;;5086048;28;20113;-69
2022/05/18 05:02:17;;;;;;;6.47;2.83;;;;;;;;;;5094825;28;20036;-69
2022/05/18 05:04:43;;;;;;;11.50;3.13;;;;;;;;;;5084202;28;20043;-69
2022/05/18 05:07:08;;;;;;;5.35;2.30;;;;;;;;;;5089459;28;20311;-72
2022/05/18 05:09:34;;;;;;;20.75;2.92;;;;;;;;;;5076851;28;20040;-72
2022/05/18 05:12:00;;;;;;;4.05;2.35;;;;;;;;;;5072748;28;20033;-72
2022/05/18 05:14:26;;;;;;;27.02;4.15;;;;;;;;;;5081120;28;20123;-72
2022/05/18 05:16:51;;;;;;;11.65;2.20;;;;;;;;;;5081970;28;20042;-72
2022/05/18 05:19:17;;;;;;;12.93;2.33;;;;;;;;;;5075058;28;20402;-73
2022/05/18 05:21:42;;;;;;;11.23;2.35;;;;;;;;;;5083683;28;20517;-68
2022/05/18 05:24:11;;;;;;;7.60;1.95;;;;;;;;;;5094473;28;20038;-70
2022/05/18 05:26:37;;;;;;;49.25;4.47;;;;;;;;;;5076594;28;20040;-69
2022/05/18 05:29:02;;;;;;;20.73;2.07;;;;;;;;;;5074006;28;20036;-70
2022/05/18 05:31:28;;;;;;;12.23;2.20;;;;;;;;;;5079689;28;20044;-69
2022/05/18 05:33:53;;;;;;;23.47;2.60;;;;;;;;;;5083095;28;20040;-69
2022/05/18 05:36:19;;;;;;;16.75;2.78;;;;;;;14.99;nan;100941.09;5084666;28;20113;-70
2022/05/18 05:38:45;;;;;;;27.38;2.72;;;;;;;;;;5079258;28;20124;-72
2022/05/18 05:41:10;;;;;;;89.70;5.63;;;;;;;;;;5084781;28;20048;-69
2022/05/18 05:43:35;;;;;;;35.07;2.93;;;;;;;;;;5087738;28;20284;-73
2022/05/18 05:46:04;;;;;;;12.50;2.00;;;;;;;;;;5087134;28;20827;-71
2022/05/18 05:48:30;;;;;;;12.00;2.20;;;;;;;;;;5091110;28;20286;-70
2022/05/18 05:50:57;;;;;;;7.10;1.60;;;;;;;;;;5096270;28;20117;-72
2022/05/18 05:53:22;;;;;;;13.10;1.95;;;;;;;;;;5096797;28;20982;-72
2022/05/18 05:55:47;;;;;;;26.65;2.25;;;;;;;;;;5085983;28;20032;-73
2022/05/18 05:58:14;;;;;;;16.85;1.60;;;;;;;;;;5085142;28;20032;-72
2022/05/18 06:00:40;;;;;;;21.60;2.22;;;;;;;;;;5085007;28;20039;-72
2022/05/18 06:03:05;;;;;;;8.10;1.67;;;;;;;;;;5089083;28;20117;-73
2022/05/18 06:05:30;;;;;;;39.50;2.85;;;;;;;;;;5080835;28;20304;-73
2022/05/18 06:07:56;;;;;;;16.07;1.90;;;;;;;;;;5079267;28;20040;-73
2022/05/18 06:10:21;;;;;;;84.33;5.07;;;;;;;;;;5082808;28;20350;-72
2022/05/18 06:12:47;;;;;;;29.83;3.15;;;;;;;;;;5080547;28;20282;-72
2022/05/18 06:15:12;;;;;;;44.35;3.35;;;;;;;;;;5087466;28;20066;-73
2022/05/18 06:17:38;;;;;;;35.58;3.17;;;;;;;15.27;nan;100885.28;5104895;28;20111;-73
2022/05/18 06:20:03;;;;;;;53.42;4.20;;;;;;;;;;5081006;28;20119;-74
2022/05/18 06:22:29;;;;;;;47.30;3.90;;;;;;;15.36;nan;100985.72;5095488;28;20397;-73
2022/05/18 06:24:54;;;;;;;35.05;2.78;;;;;;;15.34;nan;100924.91;5087894;28;20036;-73
2022/05/18 06:27:20;;;;;;;60.22;4.72;;;;;;;;;;5082029;28;20040;-73
2022/05/18 06:29:47;;;;;;;43.38;2.88;;;;;;;;;;5079423;28;20064;-73
2022/05/18 06:32:13;;;;;;;53.20;3.22;;;;;;;;;;5086251;28;20131;-72
2022/05/18 06:34:39;;;;;;;42.15;3.30;;;;;;;;;;5096046;28;20074;-69
2022/05/18 06:37:05;;;;;;;13.70;1.97;;;;;;;;;;5076614;28;20055;-69
2022/05/18 06:39:30;;;;;;;13.88;1.95;;;;;;;;;;5086358;28;20268;-68
2022/05/18 06:41:57;;;;;;;29.98;2.88;;;;;;;;;;5091714;28;20035;-68
2022/05/18 06:44:24;;;;;;;9.95;1.40;;;;;;;;;;5091620;28;20039;-68
2022/05/18 06:46:49;;;;;;;18.35;1.75;;;;;;;;;;5075902;28;20131;-69
2022/05/18 06:49:16;;;;;;;20.75;2.58;;;;;;;;;;5076474;28;20490;-70
2022/05/18 06:51:43;;;;;;;99.03;6.38;;;;;;;;;;5088914;28;20083;-67
2022/05/18 06:54:08;;;;;;;15.75;2.22;;;;;;;;;;5089916;28;20020;-67
2022/05/18 06:56:35;;;;;;;7.57;1.30;;;;;;;;;;5075241;28;20086;-69
2022/05/18 06:59:00;;;;;;;25.15;1.83;;;;;;;;;;5081233;28;20093;-69
2022/05/18 07:01:27;;;;;;;19.08;1.98;;;;;;;;;;5089346;28;20036;-68
2022/05/18 07:03:52;;;;;;;13.55;1.77;;;;;;;;;;5072397;28;20040;-70
2022/05/18 07:06:19;;;;;;;18.83;1.93;;;;;;;;;;5086884;28;20039;-69
2022/05/18 07:08:45;;;;;;;66.53;5.32;;;;;;;;;;5081330;28;20707;-73
2022/05/18 07:11:12;;;;;;;41.88;3.72;;;;;;;;;;5082129;28;20127;-73
2022/05/18 07:13:38;;;;;;;13.98;1.60;;;;;;;;;;5083384;28;20418;-73
2022/05/18 07:16:04;;;;;;;21.55;1.50;;;;;;;;;;5079560;28;20498;-73
2022/05/18 07:18:30;;;;;;;14.95;2.03;;;;;;;;;;5083432;28;20028;-73
2022/05/18 07:20:56;;;;;;;9.48;1.52;;;;;;;;;;5083560;28;20039;-73
2022/05/18 07:23:22;;;;;;;8.15;1.30;;;;;;;;;;5078552;28;20098;-73
2022/05/18 07:25:47;;;;;;;10.20;1.42;;;;;;;;;;5101963;28;20532;-73
2022/05/18 07:28:12;;;;;;;8.00;1.47;;;;;;;;;;5088712;28;20032;-73
2022/05/18 07:30:38;;;;;;;55.83;3.10;;;;;;;;;;5078802;28;20346;-73
2022/05/18 07:33:03;;;;;;;51.65;2.92;;;;;;;;;;5081044;28;20257;-72
2022/05/18 07:35:28;;;;;;;15.70;1.40;;;;;;;;;;5101399;28;20131;-72
2022/05/18 07:37:54;;;;;;;19.73;1.37;;;;;;;;;;5094913;28;20097;-72
2022/05/18 07:40:19;;;;;;;3.22;1.20;;;;;;;;;;5107261;28;20400;-72
2022/05/18 07:42:45;;;;;;;20.73;2.10;;;;;;;;;;5099204;28;20087;-71
2022/05/18 07:45:10;;;;;;;10.98;1.10;;;;;;;;;;5109048;28;20257;-72
2022/05/18 07:47:35;;;;;;;16.63;1.43;;;;;;;;;;5106597;28;20069;-70
2022/05/18 07:50:00;;;;;;;8.38;1.10;;;;;;;;;;5116986;28;20030;-74
2022/05/18 07:52:26;;;;;;;3.58;1.13;;;;;;;;;;5098229;28;20036;-73
2022/05/18 07:54:51;;;;;;;6.47;0.90;;;;;;;;;;5110303;28;20032;-74
2022/05/18 07:57:17;;;;;;;8.95;1.40;;;;;;;;;;5100387;28;20036;-74
2022/05/18 07:59:43;;;;;;;9.15;1.20;;;;;;;;;;5110103;28;20066;-74
2022/05/18 08:02:08;;;;;;;14.05;1.15;;;;;;;;;;5114262;28;20036;-74
2022/05/18 08:04:33;;;;;;;4.25;1.02;;;;;;;;;;5099044;28;20020;-74
2022/05/18 08:06:58;;;;;;;9.60;1.27;;;;;;;;;;5096059;28;20044;-74
2022/05/18 08:09:24;;;;;;;14.63;1.40;;;;;;;;;;5093716;28;20256;-74
2022/05/18 08:17:18;;;;;;;8.18;1.20;;;;;;;;;;5080301;28;20037;-74
2022/05/18 08:19:44;;;;;;;10.15;1.02;;;;;;;15.86;nan;101195.47;5090002;28;20038;-73
2022/05/18 08:22:10;;;;;;;21.77;1.77;;;;;;;;;;5099338;28;20027;-73
2022/05/18 08:24:36;;;;;;;26.27;1.40;;;;;;;;;;5103446;28;20085;-73
2022/05/18 08:27:05;;;;;;;21.02;2.55;;;;;;;;;;5086159;28;20044;-73
2022/05/18 08:29:30;;;;;;;10.20;1.40;;;;;;;;;;5101869;28;20389;-72
2022/05/18 08:31:56;;;;;;;8.10;1.00;;;;;;;;;;5091180;28;20036;-72
2022/05/18 08:34:21;;;;;;;10.80;1.27;;;;;;;;;;5088086;28;20488;-69
2022/05/18 08:36:46;;;;;;;8.38;0.90;;;;;;;;;;5084937;28;20442;-71
2022/05/18 08:39:12;;;;;;;8.48;1.73;;;;;;;;;;5076679;28;20378;-71
2022/05/18 08:41:41;;;;;;;6.87;1.10;;;;;;;;;;5073013;28;20133;-71
2022/05/18 08:44:08;;;;;;;14.98;1.92;;;;;;;;;;5088839;28;20758;-71
2022/05/18 08:46:44;;;;;;;10.30;1.17;;;;;;;;;;5096875;28;20042;-74
2022/05/18 08:49:12;;;;;;;12.18;1.10;;;;;;;;;;5087581;28;20036;-73
2022/05/18 08:51:56;;;;;;;5.03;0.70;;;;;;;;;;5093528;28;20044;-73
2022/05/18 08:54:22;;;;;;;2.35;1.00;;;;;;;;;;5081045;28;20497;-74
2022/05/18 08:56:49;;;;;;;4.47;0.70;;;;;;;;;;5077508;28;20045;-74
2022/05/18 08:59:20;;;;;;;11.57;1.17;;;;;;;;;;5082910;28;20162;-73
2022/05/18 09:01:46;;;;;;;12.95;1.40;;;;;;;;;;5083935;28;20090;-73
2022/05/18 09:04:30;;;;;;;10.18;0.93;;;;;;;;;;5077999;28;20044;-74
2022/05/18 09:07:04;;;;;;;8.95;0.93;;;;;;;;;;5079138;28;20063;-72
2022/05/18 09:12:13;;;;;;;9.82;1.60;;;;;;;;;;5082239;28;20032;-72
2022/05/18 09:14:40;;;;;;;13.27;2.13;;;;;;;;;;5107801;28;20086;-73
2022/05/18 09:17:20;;;;;;;6.88;0.90;;;;;;;;;;5090946;28;20548;-73
2022/05/18 09:19:54;;;;;;;16.38;1.05;;;;;;;;;;5098321;28;20031;-73
2022/05/18 09:22:23;;;;;;;10.45;1.10;;;;;;;;;;5084622;28;20132;-73
2022/05/18 09:25:07;;;;;;;6.63;1.00;;;;;;;;;;5095266;28;20036;-74
2022/05/18 09:27:45;;;;;;;5.05;0.80;;;;;;;;;;5095599;28;20036;-73
2022/05/18 09:30:42;;;;;;;11.50;1.20;;;;;;;16.71;nan;101238.78;5085491;28;20577;-70
2022/05/18 09:33:27;;;;;;;14.43;1.30;;;;;;;16.75;nan;101199.19;5084790;28;20273;-73
2022/05/18 09:36:02;;;;;;;8.90;1.52;;;;;;;16.54;nan;101220.19;5087380;28;20032;-73
2022/05/18 09:38:39;;;;;;;8.43;0.90;;;;;;;16.59;nan;101232.72;5096259;28;20055;-73
2022/05/18 09:41:13;;;;;;;8.38;0.80;;;;;;;16.73;nan;101257.13;5088824;28;20047;-74
2022/05/18 09:43:46;;;;;;;10.40;1.38;;;;;;;16.72;nan;101243.03;5092150;28;20044;-75
2022/05/18 09:46:19;;;;;;;18.10;1.33;;;;;;;16.75;nan;101231.91;5093523;28;20043;-74
2022/05/18 09:48:52;;;;;;;11.70;1.40;;;;;;;16.78;nan;101265.19;5095693;28;20047;-74
2022/05/18 09:51:18;;;;;;;12.40;1.48;;;;;;;16.79;nan;101216.28;5092587;28;20457;-76
2022/05/18 09:53:44;;;;;;;4.70;1.15;;;;;;;16.75;nan;101201.84;5088804;28;20142;-73
2022/05/18 09:56:18;;;;;;;10.57;1.73;;;;;;;16.89;nan;101244.88;5089759;28;20039;-74
2022/05/18 09:58:46;;;;;;;6.38;0.90;;;;;;;17.11;nan;101261.66;5092392;28;20039;-74
2022/05/18 10:09:39;;;;;;;17.23;1.30;;;;;;;17.18;nan;101226.88;5087567;28;20032;-74
2022/05/18 10:12:26;;;;;;;10.55;1.20;;;;;;;17.30;nan;101240.06;5092477;28;20047;-73
2022/05/18 10:15:03;;;;;;;12.98;1.08;;;;;;;17.29;nan;101233.94;5089456;28;20044;-75
2022/05/18 10:17:46;;;;;;;7.88;0.90;;;;;;;17.34;nan;101252.63;5090053;28;20035;-74
2022/05/18 10:20:23;;;;;;;8.15;0.93;;;;;;;17.33;nan;101239.56;5089105;28;20093;-74
2022/05/18 10:22:49;;;;;;;8.82;1.58;;;;;;;;;;5082350;28;20048;-74
2022/05/18 10:25:22;;;;;;;9.32;1.00;;;;;;;;;;5092334;28;20059;-74
2022/05/18 10:27:48;;;;;;;17.48;1.50;;;;;;;;;;5091476;28;20101;-73
2022/05/18 10:30:19;;;;;;;7.28;1.30;;;;;;;17.43;nan;101248.47;5091346;28;20040;-66
2022/05/18 10:32:59;;;;;;;4.78;0.80;;;;;;;;;;5092500;28;20038;-65
2022/05/18 10:35:34;;;;;;;8.05;1.00;;;;;;;;;;5086211;28;20099;-63
2022/05/18 10:38:03;;;;;;;11.70;1.25;;;;;;;;;;5091676;28;20036;-70
2022/05/18 10:40:28;;;;;;;7.82;1.10;;;;;;;;;;5084744;28;20107;-66
2022/05/18 10:42:55;;;;;;;0.90;0.68;;;;;;;;;;5089650;28;20105;-68
2022/05/18 10:45:26;;;;;;;7.43;1.25;;;;;;;;;;5092200;28;20036;-68
2022/05/18 10:47:57;;;;;;;8.30;1.10;;;;;;;;;;5091689;28;20028;-67
2022/05/18 10:50:25;;;;;;;5.43;0.90;;;;;;;;;;5093678;28;20040;-67
2022/05/18 10:52:55;;;;;;;4.57;1.00;;;;;;;;;;5092929;28;20119;-67
2022/05/18 10:55:22;;;;;;;5.32;0.90;;;;;;;;;;5091760;28;20147;-67
2022/05/18 10:58:22;;;;;;;2.33;0.95;;;;;;;;;;5084757;28;20821;-66
2022/05/18 11:00:52;;;;;;;4.05;1.13;;;;;;;;;;5088286;28;20052;-67
2022/05/18 11:03:36;;;;;;;8.35;1.63;;;;;;;;;;5088244;28;20039;-66
2022/05/18 11:06:13;;;;;;;8.45;1.17;;;;;;;17.66;nan;101281.19;5090565;28;20577;-66
2022/05/18 11:08:39;;;;;;;9.13;1.27;;;;;;;;;;5088471;28;20044;-75
2022/05/18 11:11:24;;;;;;;8.30;0.95;;;;;;;;;;5091754;28;20504;-69
2022/05/18 11:14:04;;;;;;;5.25;1.20;;;;;;;;;;5084862;28;20115;-69
2022/05/18 11:16:47;;;;;;;4.80;0.90;;;;;;;;;;5088183;28;20028;-68
2022/05/18 11:19:25;;;;;;;6.63;2.20;;;;;;;;;;5093235;28;20032;-69
2022/05/18 11:21:50;;;;;;;2.05;1.05;;;;;;;;;;5090152;28;20032;-68
2022/05/18 11:24:31;;;;;;;6.70;0.80;;;;;;;;;;5085398;28;20134;-69
2022/05/18 11:27:17;;;;;;;5.60;1.27;;;;;;;18.05;nan;101255.22;5087302;28;20287;-68
2022/05/18 11:30:12;;;;;;;3.55;0.75;;;;;;;;;;5088485;28;20070;-68
2022/05/18 11:32:38;;;;;;;15.63;1.35;;;;;;;;;;5084592;28;20051;-74
2022/05/18 11:35:16;;;;;;;7.32;1.00;;;;;;;18.25;nan;101254.59;5107802;27;20047;-74
2022/05/18 11:37:58;;;;;;;4.80;1.20;;;;;;;18.24;nan;101222.84;5088002;28;20443;-72
2022/05/18 11:40:51;;;;;;;14.90;1.55;;;;;;;18.23;nan;101229.25;5100942;28;20115;-71
2022/05/18 11:43:28;;;;;;;6.80;1.00;;;;;;;;;;5100753;28;20116;-69
2022/05/18 11:46:13;;;;;;;2.17;0.80;;;;;;;;;;5089149;28;20039;-73
2022/05/18 11:48:45;;;;;;;3.90;0.82;;;;;;;;;;5088753;28;20032;-74
2022/05/18 11:51:10;;;;;;;6.53;1.00;;;;;;;;;;5090495;28;20033;-73
2022/05/18 11:53:44;;;;;;;6.13;0.80;;;;;;;;;;5096702;28;20059;-71
2022/05/18 11:56:22;;;;;;;9.02;1.20;;;;;;;;;;5097541;28;20032;-75
2022/05/18 12:02:16;;;;;;;7.15;1.02;;;;;;;18.45;nan;101231.78;5106299;28;20036;-74
2022/05/18 12:05:29;;;;;;;8.93;1.40;;;;;;;18.46;nan;101233.38;5123862;28;20143;-74
2022/05/18 12:08:14;;;;;;;3.20;1.13;;;;;;;18.40;nan;101231.75;5110095;28;20118;-74
2022/05/18 12:10:50;;;;;;;8.10;1.20;;;;;;;18.45;nan;101264.59;5105299;28;20036;-70
2022/05/18 12:13:30;;;;;;;3.90;0.98;;;;;;;18.40;nan;101272.53;5103488;28;20027;-72
2022/05/18 12:15:59;;;;;;;2.97;0.73;;;;;;;;;;5101440;28;20085;-72
2022/05/18 12:18:37;;;;;;;6.82;0.95;;;;;;;18.55;nan;101273.72;5086082;28;20033;-70
2022/05/18 12:21:17;;;;;;;4.78;0.93;;;;;;;18.57;nan;101271.59;5077263;28;20126;-70
2022/05/18 12:23:48;;;;;;;13.50;1.50;;;;;;;18.57;nan;101276.94;5064639;28;20051;-69
2022/05/18 12:26:15;;;;;;;2.92;0.73;;;;;;;18.57;nan;101314.28;5090292;28;20166;-69
2022/05/18 12:28:42;;;;;;;8.13;0.90;;;;;;;18.64;nan;101256.97;5079337;28;20040;-68
2022/05/18 12:31:09;;;;;;;8.52;1.20;;;;;;;18.65;nan;101281.78;5096218;28;20075;-69
2022/05/18 12:33:42;;;;;;;4.43;1.02;;;;;;;;;;5100167;28;20031;-74
2022/05/18 12:36:24;;;;;;;9.02;1.40;;;;;;;18.71;nan;101272.75;5077526;28;20052;-72
2022/05/18 12:39:06;;;;;;;2.97;1.00;;;;;;;18.63;nan;101273.25;5087058;28;20032;-74
2022/05/18 12:41:37;;;;;;;8.30;1.00;;;;;;;;;;5088746;28;20042;-73
2022/05/18 12:44:10;;;;;;;7.60;1.15;;;;;;;18.81;nan;101296.84;5063338;28;20032;-74
2022/05/18 12:46:37;;;;;;;5.32;1.10;;;;;;;18.76;nan;101280.81;5085696;28;20436;-70
2022/05/18 12:49:12;;;;;;;5.38;0.80;;;;;;;18.78;nan;101297.38;5090801;28;20754;-71
2022/05/18 12:51:52;;;;;;;2.92;0.60;;;;;;;18.75;nan;101308.53;5088083;28;20052;-70
2022/05/18 12:54:30;;;;;;;5.10;0.85;;;;;;;;;;5090983;28;20071;-74
2022/05/18 12:57:05;;;;;;;4.07;0.98;;;;;;;18.94;nan;101292.94;5090552;28;20035;-73
2022/05/18 12:59:46;;;;;;;13.15;1.10;;;;;;;19.00;nan;101270.53;5090363;28;20444;-73
2022/05/18 13:02:43;;;;;;;7.75;0.95;;;;;;;18.97;nan;101264.94;5085624;28;20031;-72
2022/05/18 13:05:26;;;;;;;6.28;1.00;;;;;;;19.03;nan;101272.69;5045467;28;20589;-69
2022/05/18 13:07:54;;;;;;;9.00;1.00;;;;;;;19.00;nan;101243.84;5047420;28;20041;-69
2022/05/18 13:10:25;;;;;;;5.75;1.00;;;;;;;19.02;nan;101280.97;5052558;28;20036;-69
2022/05/18 13:13:23;;;;;;;6.50;0.82;;;;;;;18.90;nan;101339.88;5045997;28;20609;-69
2022/05/18 13:15:51;;;;;;;2.72;1.20;;;;;;;18.99;nan;101276.97;5044723;28;20082;-69
2022/05/18 13:18:19;;;;;;;6.40;0.80;;;;;;;;;;5046370;28;20041;-70
2022/05/18 13:21:22;;;;;;;9.20;0.93;;;;;;;19.08;nan;101293.25;5046136;28;20335;-70
2022/05/18 13:24:02;;;;;;;8.75;1.23;;;;;;;19.06;nan;101300.75;5035131;28;20444;-68
2022/05/18 13:26:33;;;;;;;10.48;1.15;;;;;;;19.03;nan;101298.56;5041183;28;20049;-70
2022/05/18 13:29:15;;;;;;;24.80;1.60;;;;;;;19.08;nan;101299.44;5046235;28;20090;-68
2022/05/18 13:31:41;;;;;;;3.17;0.80;;;;;;;;;;5025167;28;20393;-70
2022/05/18 13:34:20;;;;;;;7.13;0.90;;;;;;;18.94;nan;101361.50;5042135;28;20726;-68
2022/05/18 13:36:53;;;;;;;6.45;1.45;;;;;;;18.93;nan;101302.00;5045406;28;20673;-69
2022/05/18 13:39:42;;;;;;;7.18;0.80;;;;;;;18.88;nan;101292.09;5026847;28;20033;-69
2022/05/18 13:42:14;;;;;;;3.95;0.65;;;;;;;18.90;nan;101307.84;5081934;28;20501;-71
2022/05/18 13:44:40;;;;;;;14.00;1.40;;;;;;;18.98;nan;101317.25;5090580;28;20398;-73
2022/05/18 13:47:10;;;;;;;5.28;1.23;;;;;;;19.01;nan;101293.50;5088923;28;20735;-72
2022/05/18 13:49:41;;;;;;;2.67;0.70;;;;;;;19.03;nan;101295.91;5080032;28;20036;-75
2022/05/18 13:52:19;;;;;;;7.22;0.95;;;;;;;;;;5085159;28;20044;-75
2022/05/18 13:54:46;;;;;;;4.47;0.77;;;;;;;;;;5091866;28;20064;-68
2022/05/18 13:57:22;;;;;;;4.90;0.70;;;;;;;19.05;nan;101296.47;5112122;27;20413;-68
2022/05/18 13:59:55;;;;;;;7.35;0.63;;;;;;;19.06;nan;101290.06;5067540;28;20058;-69
2022/05/18 14:02:22;;;;;;;6.15;0.93;;;;;;;;;;5088104;28;20378;-69
2022/05/18 14:04:53;;;;;;;4.07;0.70;;;;;;;19.08;nan;101328.78;5092589;28;20040;-69
2022/05/18 14:07:21;;;;;;;6.15;0.70;;;;;;;19.12;nan;101295.16;5092358;28;20144;-69
2022/05/18 14:09:48;;;;;;;3.67;0.80;;;;;;;19.09;nan;101289.53;5092506;28;20040;-67
2022/05/18 14:12:23;;;;;;;3.20;0.70;;;;;;;19.08;nan;101306.59;5090707;28;20031;-70
2022/05/18 14:14:53;;;;;;;4.30;0.95;;;;;;;19.00;nan;101304.44;5090272;28;20040;-68
2022/05/18 14:17:20;;;;;;;7.43;0.75;;;;;;;;;;5092669;28;20101;-67
2022/05/18 14:19:51;;;;;;;6.13;0.70;;;;;;;18.92;nan;101322.56;5090703;28;20040;-69
2022/05/18 14:22:19;;;;;;;6.93;0.80;;;;;;;18.92;nan;101297.72;5087294;28;20047;-69
2022/05/18 14:24:52;;;;;;;3.55;0.73;;;;;;;18.89;nan;101301.72;5090526;28;20040;-68